sensor_id;sensor_type;location;lat;lon;timestamp;temperature;humidity
43227;DHT22;28839;52.404;9.808;2023-07-22T00:06:22;14.40;99.90
43227;DHT22;28839;52.404;9.808;2023-07-22T00:13:16;14.40;99.90
43227;DHT22;28839;52.404;9.808;2023-07-22T00:20:11;14.30;99.90
43227;DHT22;28839;52.404;9.808;2023-07-22T00:27:06;14.20;99.90
43227;DHT22;28839;52.404;9.808;2023-07-22T00:34:01;14.30;99.90
43227;DHT22;28839;52.404;9.808;2023-07-22T00:40:56;14.20;99.90
43227;DHT22;28839;52.404;9.808;2023-07-22T00:47:50;14.10;99.90
43227;DHT22;28839;52.404;9.808;2023-07-22T00:54:44;14.10;99.90
43227;DHT22;28839;52.404;9.808;2023-07-22T01:01:40;14.10;99.90
43227;DHT22;28839;52.404;9.808;2023-07-22T01:08:34;13.90;99.90
43227;DHT22;28839;52.404;9.808;2023-07-22T01:15:28;14.00;99.90
43227;DHT22;28839;52.404;9.808;2023-07-22T01:22:23;13.90;99.90
43227;DHT22;28839;52.404;9.808;2023-07-22T01:29:19;13.80;99.90
43227;DHT22;28839;52.404;9.808;2023-07-22T01:36:13;13.70;99.90
43227;DHT22;28839;52.404;9.808;2023-07-22T01:43:07;13.80;99.90
43227;DHT22;28839;52.404;9.808;2023-07-22T01:50:02;13.70;99.90
43227;DHT22;28839;52.404;9.808;2023-07-22T01:56:56;13.60;99.90
43227;DHT22;28839;52.404;9.808;2023-07-22T02:03:50;13.60;99.90
43227;DHT22;28839;52.404;9.808;2023-07-22T02:10:45;13.50;99.90
43227;DHT22;28839;52.404;9.808;2023-07-22T02:17:39;13.50;99.90
43227;DHT22;28839;52.404;9.808;2023-07-22T02:24:33;13.40;99.90
43227;DHT22;28839;52.404;9.808;2023-07-22T02:31:28;13.30;99.90
43227;DHT22;28839;52.404;9.808;2023-07-22T02:38:22;13.20;99.90
43227;DHT22;28839;52.404;9.808;2023-07-22T02:45:16;13.30;99.90
43227;DHT22;28839;52.404;9.808;2023-07-22T02:52:11;13.20;99.90
43227;DHT22;28839;52.404;9.808;2023-07-22T02:59:05;13.20;99.90
43227;DHT22;28839;52.404;9.808;2023-07-22T03:05:58;13.20;99.90
43227;DHT22;28839;52.404;9.808;2023-07-22T03:12:55;13.30;99.90
43227;DHT22;28839;52.404;9.808;2023-07-22T03:19:49;13.10;99.90
43227;DHT22;28839;52.404;9.808;2023-07-22T03:26:43;13.10;99.90
43227;DHT22;28839;52.404;9.808;2023-07-22T03:33:38;13.10;99.90
43227;DHT22;28839;52.404;9.808;2023-07-22T03:40:33;13.10;99.90
43227;DHT22;28839;52.404;9.808;2023-07-22T03:47:28;13.10;99.90
43227;DHT22;28839;52.404;9.808;2023-07-22T03:54:23;13.10;99.90
43227;DHT22;28839;52.404;9.808;2023-07-22T04:01:17;13.10;99.90
43227;DHT22;28839;52.404;9.808;2023-07-22T04:08:11;13.10;99.90
43227;DHT22;28839;52.404;9.808;2023-07-22T04:15:07;13.10;99.90
43227;DHT22;28839;52.404;9.808;2023-07-22T04:22:01;13.10;99.90
43227;DHT22;28839;52.404;9.808;2023-07-22T04:28:56;13.10;99.90
43227;DHT22;28839;52.404;9.808;2023-07-22T04:35:53;13.30;99.90
43227;DHT22;28839;52.404;9.808;2023-07-22T04:42:47;13.40;99.90
43227;DHT22;28839;52.404;9.808;2023-07-22T04:49:41;13.50;99.90
43227;DHT22;28839;52.404;9.808;2023-07-22T04:56:36;13.70;99.90
43227;DHT22;28839;52.404;9.808;2023-07-22T05:03:30;13.80;99.90
43227;DHT22;28839;52.404;9.808;2023-07-22T05:10:24;13.80;99.90
43227;DHT22;28839;52.404;9.808;2023-07-22T05:17:19;14.00;99.90
43227;DHT22;28839;52.404;9.808;2023-07-22T05:24:13;14.30;99.90
43227;DHT22;28839;52.404;9.808;2023-07-22T05:31:07;14.50;99.90
43227;DHT22;28839;52.404;9.808;2023-07-22T05:38:02;14.60;99.90
43227;DHT22;28839;52.404;9.808;2023-07-22T05:44:57;14.60;99.90
43227;DHT22;28839;52.404;9.808;2023-07-22T05:51:52;14.70;99.90
43227;DHT22;28839;52.404;9.808;2023-07-22T05:58:48;14.80;99.90
43227;DHT22;28839;52.404;9.808;2023-07-22T06:05:42;15.00;99.90
43227;DHT22;28839;52.404;9.808;2023-07-22T06:12:35;15.10;99.90
43227;DHT22;28839;52.404;9.808;2023-07-22T06:19:32;15.20;99.90
43227;DHT22;28839;52.404;9.808;2023-07-22T06:26:26;15.30;99.90
43227;DHT22;28839;52.404;9.808;2023-07-22T06:33:19;15.40;99.90
43227;DHT22;28839;52.404;9.808;2023-07-22T06:40:15;15.40;99.90
43227;DHT22;28839;52.404;9.808;2023-07-22T06:47:09;15.50;99.90
43227;DHT22;28839;52.404;9.808;2023-07-22T06:54:03;15.80;99.90
43227;DHT22;28839;52.404;9.808;2023-07-22T07:00:58;15.90;99.90
43227;DHT22;28839;52.404;9.808;2023-07-22T07:07:52;16.30;99.90
43227;DHT22;28839;52.404;9.808;2023-07-22T07:14:45;16.50;99.90
43227;DHT22;28839;52.404;9.808;2023-07-22T07:21:41;16.60;99.90
43227;DHT22;28839;52.404;9.808;2023-07-22T07:28:34;16.70;99.90
43227;DHT22;28839;52.404;9.808;2023-07-22T07:35:28;16.60;99.90
43227;DHT22;28839;52.404;9.808;2023-07-22T07:42:23;16.80;99.90
43227;DHT22;28839;52.404;9.808;2023-07-22T07:49:17;17.80;99.90
43227;DHT22;28839;52.404;9.808;2023-07-22T07:56:12;17.60;99.90
43227;DHT22;28839;52.404;9.808;2023-07-22T08:03:07;17.70;99.90
43227;DHT22;28839;52.404;9.808;2023-07-22T08:10:01;17.50;99.90
43227;DHT22;28839;52.404;9.808;2023-07-22T08:16:56;17.30;99.90
43227;DHT22;28839;52.404;9.808;2023-07-22T08:23:51;17.30;99.90
43227;DHT22;28839;52.404;9.808;2023-07-22T08:30:47;17.30;99.90
43227;DHT22;28839;52.404;9.808;2023-07-22T08:37:41;17.50;99.90
43227;DHT22;28839;52.404;9.808;2023-07-22T08:44:38;18.00;99.90
43227;DHT22;28839;52.404;9.808;2023-07-22T08:51:32;17.90;99.90
43227;DHT22;28839;52.404;9.808;2023-07-22T08:58:26;17.80;99.90
43227;DHT22;28839;52.404;9.808;2023-07-22T09:05:22;18.00;99.90
43227;DHT22;28839;52.404;9.808;2023-07-22T09:12:17;18.00;99.90
43227;DHT22;28839;52.404;9.808;2023-07-22T09:19:11;18.70;99.90
43227;DHT22;28839;52.404;9.808;2023-07-22T09:26:10;18.50;99.90
43227;DHT22;28839;52.404;9.808;2023-07-22T09:33:05;18.30;99.90
43227;DHT22;28839;52.404;9.808;2023-07-22T09:40:00;18.40;99.90
43227;DHT22;28839;52.404;9.808;2023-07-22T09:46:55;19.30;99.90
43227;DHT22;28839;52.404;9.808;2023-07-22T09:54:00;19.50;99.90
43227;DHT22;28839;52.404;9.808;2023-07-22T10:00:54;19.70;99.90
43227;DHT22;28839;52.404;9.808;2023-07-22T10:07:50;19.50;99.90
43227;DHT22;28839;52.404;9.808;2023-07-22T10:14:45;19.10;99.90
43227;DHT22;28839;52.404;9.808;2023-07-22T10:21:39;19.90;99.90
43227;DHT22;28839;52.404;9.808;2023-07-22T10:28:35;19.90;99.90
43227;DHT22;28839;52.404;9.808;2023-07-22T10:35:41;19.30;99.90
43227;DHT22;28839;52.404;9.808;2023-07-22T10:42:35;19.30;99.90
43227;DHT22;28839;52.404;9.808;2023-07-22T10:49:44;19.80;99.90
43227;DHT22;28839;52.404;9.808;2023-07-22T10:56:40;19.60;99.90
43227;DHT22;28839;52.404;9.808;2023-07-22T11:03:34;18.90;99.90
43227;DHT22;28839;52.404;9.808;2023-07-22T11:10:29;19.00;99.90
43227;DHT22;28839;52.404;9.808;2023-07-22T11:17:28;19.60;99.90
43227;DHT22;28839;52.404;9.808;2023-07-22T11:24:24;19.10;99.90
43227;DHT22;28839;52.404;9.808;2023-07-22T11:31:19;18.90;99.90
43227;DHT22;28839;52.404;9.808;2023-07-22T11:38:14;18.90;99.90
43227;DHT22;28839;52.404;9.808;2023-07-22T11:45:09;19.20;99.90
43227;DHT22;28839;52.404;9.808;2023-07-22T11:52:06;19.20;99.90
43227;DHT22;28839;52.404;9.808;2023-07-22T11:59:00;19.30;99.90
43227;DHT22;28839;52.404;9.808;2023-07-22T12:05:55;19.50;99.90
43227;DHT22;28839;52.404;9.808;2023-07-22T12:12:50;19.60;99.90
43227;DHT22;28839;52.404;9.808;2023-07-22T12:19:51;19.50;99.90
43227;DHT22;28839;52.404;9.808;2023-07-22T12:26:45;19.30;99.90
43227;DHT22;28839;52.404;9.808;2023-07-22T12:33:40;19.60;99.90
43227;DHT22;28839;52.404;9.808;2023-07-22T12:40:34;19.60;99.90
43227;DHT22;28839;52.404;9.808;2023-07-22T12:47:28;20.00;99.90
43227;DHT22;28839;52.404;9.808;2023-07-22T12:54:23;20.20;99.90
43227;DHT22;28839;52.404;9.808;2023-07-22T13:01:17;20.60;99.90
43227;DHT22;28839;52.404;9.808;2023-07-22T13:08:10;20.70;99.90
43227;DHT22;28839;52.404;9.808;2023-07-22T13:15:06;20.50;99.90
43227;DHT22;28839;52.404;9.808;2023-07-22T13:22:00;20.80;99.90
43227;DHT22;28839;52.404;9.808;2023-07-22T13:28:54;21.00;99.90
43227;DHT22;28839;52.404;9.808;2023-07-22T13:35:49;21.20;99.90
43227;DHT22;28839;52.404;9.808;2023-07-22T13:42:43;21.00;99.90
43227;DHT22;28839;52.404;9.808;2023-07-22T13:49:37;20.80;99.90
43227;DHT22;28839;52.404;9.808;2023-07-22T13:56:32;20.30;99.90
43227;DHT22;28839;52.404;9.808;2023-07-22T14:03:26;20.50;99.90
43227;DHT22;28839;52.404;9.808;2023-07-22T14:10:20;21.20;99.90
43227;DHT22;28839;52.404;9.808;2023-07-22T14:17:15;21.30;99.90
43227;DHT22;28839;52.404;9.808;2023-07-22T14:24:09;21.30;99.90
43227;DHT22;28839;52.404;9.808;2023-07-22T14:31:02;21.70;99.90
43227;DHT22;28839;52.404;9.808;2023-07-22T14:38:00;22.30;99.90
43227;DHT22;28839;52.404;9.808;2023-07-22T14:44:53;22.00;99.90
43227;DHT22;28839;52.404;9.808;2023-07-22T14:51:47;22.20;99.90
43227;DHT22;28839;52.404;9.808;2023-07-22T14:58:42;21.90;99.90
43227;DHT22;28839;52.404;9.808;2023-07-22T15:05:36;21.50;99.90
43227;DHT22;28839;52.404;9.808;2023-07-22T15:12:30;21.40;99.90
43227;DHT22;28839;52.404;9.808;2023-07-22T15:19:25;21.60;99.90
43227;DHT22;28839;52.404;9.808;2023-07-22T15:26:19;21.90;99.90
43227;DHT22;28839;52.404;9.808;2023-07-22T15:33:13;22.00;99.90
43227;DHT22;28839;52.404;9.808;2023-07-22T15:40:09;21.90;99.90
43227;DHT22;28839;52.404;9.808;2023-07-22T15:47:03;21.70;99.90
43227;DHT22;28839;52.404;9.808;2023-07-22T15:53:57;21.70;99.90
43227;DHT22;28839;52.404;9.808;2023-07-22T16:00:52;21.60;99.90
43227;DHT22;28839;52.404;9.808;2023-07-22T16:07:46;21.60;99.90
43227;DHT22;28839;52.404;9.808;2023-07-22T16:14:40;21.40;99.90
43227;DHT22;28839;52.404;9.808;2023-07-22T16:21:35;21.40;99.90
43227;DHT22;28839;52.404;9.808;2023-07-22T16:28:29;21.40;99.90
43227;DHT22;28839;52.404;9.808;2023-07-22T16:35:22;21.40;99.90
43227;DHT22;28839;52.404;9.808;2023-07-22T16:42:17;21.20;99.90
43227;DHT22;28839;52.404;9.808;2023-07-22T16:49:11;21.10;99.90
43227;DHT22;28839;52.404;9.808;2023-07-22T16:56:05;21.00;99.90
43227;DHT22;28839;52.404;9.808;2023-07-22T17:03:01;20.80;99.90
43227;DHT22;28839;52.404;9.808;2023-07-22T17:09:55;20.90;99.90
43227;DHT22;28839;52.404;9.808;2023-07-22T17:16:49;20.80;99.90
43227;DHT22;28839;52.404;9.808;2023-07-22T17:23:44;20.80;99.90
43227;DHT22;28839;52.404;9.808;2023-07-22T17:30:38;20.80;99.90
43227;DHT22;28839;52.404;9.808;2023-07-22T17:37:31;20.70;99.90
43227;DHT22;28839;52.404;9.808;2023-07-22T17:44:27;20.40;99.90
43227;DHT22;28839;52.404;9.808;2023-07-22T17:51:21;20.20;99.90
43227;DHT22;28839;52.404;9.808;2023-07-22T17:58:15;19.90;99.90
43227;DHT22;28839;52.404;9.808;2023-07-22T18:05:10;19.70;99.90
43227;DHT22;28839;52.404;9.808;2023-07-22T18:12:04;19.50;99.90
43227;DHT22;28839;52.404;9.808;2023-07-22T18:18:58;19.40;99.90
43227;DHT22;28839;52.404;9.808;2023-07-22T18:25:53;19.30;99.90
43227;DHT22;28839;52.404;9.808;2023-07-22T18:32:47;19.30;99.90
43227;DHT22;28839;52.404;9.808;2023-07-22T18:39:41;19.00;99.90
43227;DHT22;28839;52.404;9.808;2023-07-22T18:46:36;19.10;99.90
43227;DHT22;28839;52.404;9.808;2023-07-22T18:53:30;18.90;99.90
43227;DHT22;28839;52.404;9.808;2023-07-22T19:00:24;18.60;99.90
43227;DHT22;28839;52.404;9.808;2023-07-22T19:07:20;18.50;99.90
43227;DHT22;28839;52.404;9.808;2023-07-22T19:14:14;18.40;99.90
43227;DHT22;28839;52.404;9.808;2023-07-22T19:21:08;18.40;99.90
43227;DHT22;28839;52.404;9.808;2023-07-22T19:28:04;18.20;99.90
43227;DHT22;28839;52.404;9.808;2023-07-22T19:34:58;17.90;99.90
43227;DHT22;28839;52.404;9.808;2023-07-22T19:41:52;17.90;99.90
43227;DHT22;28839;52.404;9.808;2023-07-22T19:48:47;17.70;99.90
43227;DHT22;28839;52.404;9.808;2023-07-22T19:55:41;17.60;99.90
43227;DHT22;28839;52.404;9.808;2023-07-22T20:02:35;17.40;99.90
43227;DHT22;28839;52.404;9.808;2023-07-22T20:09:30;17.50;99.90
43227;DHT22;28839;52.404;9.808;2023-07-22T20:16:24;17.30;99.90
43227;DHT22;28839;52.404;9.808;2023-07-22T20:23:18;17.20;99.90
43227;DHT22;28839;52.404;9.808;2023-07-22T20:30:13;17.10;99.90
43227;DHT22;28839;52.404;9.808;2023-07-22T20:37:07;17.00;99.90
43227;DHT22;28839;52.404;9.808;2023-07-22T20:44:01;16.90;99.90
43227;DHT22;28839;52.404;9.808;2023-07-22T20:50:56;16.80;99.90
43227;DHT22;28839;52.404;9.808;2023-07-22T20:57:50;16.90;99.90
43227;DHT22;28839;52.404;9.808;2023-07-22T21:04:44;16.80;99.90
43227;DHT22;28839;52.404;9.808;2023-07-22T21:11:39;16.70;99.90
43227;DHT22;28839;52.404;9.808;2023-07-22T21:18:33;16.80;99.90
43227;DHT22;28839;52.404;9.808;2023-07-22T21:25:30;16.70;99.90
43227;DHT22;28839;52.404;9.808;2023-07-22T21:32:25;16.60;99.90
43227;DHT22;28839;52.404;9.808;2023-07-22T21:39:19;16.50;99.90
43227;DHT22;28839;52.404;9.808;2023-07-22T21:46:13;16.50;99.90
43227;DHT22;28839;52.404;9.808;2023-07-22T21:53:08;16.40;99.90
43227;DHT22;28839;52.404;9.808;2023-07-22T22:00:04;16.30;99.90
43227;DHT22;28839;52.404;9.808;2023-07-22T22:07:05;16.20;99.90
43227;DHT22;28839;52.404;9.808;2023-07-22T22:14:01;16.10;99.90
43227;DHT22;28839;52.404;9.808;2023-07-22T22:20:54;16.10;99.90
43227;DHT22;28839;52.404;9.808;2023-07-22T22:27:48;16.10;99.90
43227;DHT22;28839;52.404;9.808;2023-07-22T22:34:44;16.00;99.90
43227;DHT22;28839;52.404;9.808;2023-07-22T22:41:38;16.00;99.90
43227;DHT22;28839;52.404;9.808;2023-07-22T22:48:31;15.90;99.90
43227;DHT22;28839;52.404;9.808;2023-07-22T23:02:24;15.90;99.90
43227;DHT22;28839;52.404;9.808;2023-07-22T23:09:18;15.90;99.90
43227;DHT22;28839;52.404;9.808;2023-07-22T23:16:12;15.80;99.90
43227;DHT22;28839;52.404;9.808;2023-07-22T23:23:07;15.80;99.90
43227;DHT22;28839;52.404;9.808;2023-07-22T23:30:01;15.70;99.90
43227;DHT22;28839;52.404;9.808;2023-07-22T23:36:57;15.60;99.90
43227;DHT22;28839;52.404;9.808;2023-07-22T23:43:52;15.60;99.90
43227;DHT22;28839;52.404;9.808;2023-07-22T23:50:46;15.40;99.90
43227;DHT22;28839;52.404;9.808;2023-07-22T23:57:40;15.30;99.90
